createdAt,value
2019-05-21T00:02:10.271Z,58.40
2019-05-21T00:04:43.242Z,58.60
2019-05-21T00:07:22.325Z,58.30
2019-05-21T00:09:55.695Z,58.00
2019-05-21T00:12:35.039Z,58.80
2019-05-21T00:15:01.522Z,58.40
2019-05-21T00:17:28.018Z,58.50
2019-05-21T00:20:00.814Z,59.10
2019-05-21T00:22:27.347Z,58.60
2019-05-21T00:24:53.932Z,58.70
2019-05-21T00:27:27.208Z,58.50
2019-05-21T00:30:38.039Z,58.50
2019-05-21T00:33:41.862Z,58.30
2019-05-21T00:36:54.747Z,58.50
2019-05-21T00:39:58.501Z,58.40
2019-05-21T00:42:38.244Z,58.20
2019-05-21T00:45:07.816Z,58.60
2019-05-21T00:47:40.761Z,58.30
2019-05-21T00:50:07.859Z,58.20
2019-05-21T00:52:34.270Z,58.20
2019-05-21T00:55:07.277Z,58.30
2019-05-21T00:57:33.773Z,58.20
2019-05-21T01:00:00.248Z,58.40
2019-05-21T01:02:32.857Z,58.20
2019-05-21T01:05:01.036Z,58.60
2019-05-21T01:07:27.681Z,58.60
2019-05-21T01:10:00.624Z,58.50
2019-05-21T01:12:33.988Z,58.50
2019-05-21T01:15:13.210Z,58.60
2019-05-21T01:17:39.745Z,58.50
2019-05-21T01:20:06.363Z,58.50
2019-05-21T01:22:39.794Z,58.40
2019-05-21T01:25:06.287Z,58.60
2019-05-21T01:27:32.741Z,59.40
2019-05-21T01:30:06.297Z,58.80
2019-05-21T01:32:39.575Z,59.30
2019-05-21T01:35:16.857Z,59.20
2019-05-21T01:37:34.419Z,59.70
2019-05-21T01:40:07.888Z,59.20
2019-05-21T01:42:40.797Z,59.20
2019-05-21T01:45:17.226Z,60.10
2019-05-21T01:47:50.457Z,59.90
2019-05-21T01:50:17.095Z,59.20
2019-05-21T01:52:43.715Z,59.20
2019-05-21T01:55:16.834Z,59.30
2019-05-21T01:57:43.291Z,59.00
2019-05-21T02:00:16.174Z,59.50
2019-05-21T02:02:42.649Z,59.20
2019-05-21T02:05:09.269Z,59.10
2019-05-21T02:07:42.856Z,59.10
2019-05-21T02:10:16.484Z,59.00
2019-05-21T02:12:56.414Z,59.00
2019-05-21T02:15:23.022Z,58.90
2019-05-21T02:17:49.611Z,59.10
2019-05-21T02:20:23.413Z,59.20
2019-05-21T02:22:56.628Z,59.00
2019-05-21T02:25:29.558Z,58.90
2019-05-21T02:27:55.916Z,59.00
2019-05-21T02:30:29.599Z,58.90
2019-05-21T02:33:02.444Z,58.90
2019-05-21T02:35:52.944Z,58.80
2019-05-21T02:38:04.234Z,59.00
2019-05-21T02:40:30.718Z,59.30
2019-05-21T02:43:04.050Z,59.30
2019-05-21T02:45:30.568Z,59.10
2019-05-21T02:47:57.177Z,59.10
2019-05-21T02:50:30.145Z,59.20
2019-05-21T02:52:56.731Z,59.80
2019-05-21T02:55:30.425Z,59.80
2019-05-21T02:57:56.905Z,59.50
2019-05-21T03:00:28.567Z,59.30
2019-05-21T03:03:01.860Z,59.80
2019-05-21T03:05:35.302Z,59.70
2019-05-21T03:08:01.821Z,60.70
2019-05-21T03:10:34.943Z,59.90
2019-05-21T03:13:08.002Z,59.90
2019-05-21T03:15:34.526Z,59.90
2019-05-21T03:18:01.109Z,59.80
2019-05-21T03:20:34.280Z,59.40
2019-05-21T03:23:07.145Z,60.10
2019-05-21T03:25:40.640Z,59.70
2019-05-21T03:28:07.270Z,60.10
2019-05-21T03:30:41.140Z,59.90
2019-05-21T03:33:07.666Z,60.10
2019-05-21T03:35:34.274Z,61.20
2019-05-21T03:38:07.185Z,60.90
2019-05-21T03:40:40.306Z,61.70
2019-05-21T03:43:06.860Z,60.60
2019-05-21T03:45:33.776Z,61.40
2019-05-21T03:48:09.124Z,62.30
2019-05-21T03:50:35.707Z,61.00
2019-05-21T03:53:08.937Z,60.70
2019-05-21T03:55:42.138Z,60.80
2019-05-21T03:58:15.265Z,61.40
2019-05-21T04:00:41.872Z,61.00
2019-05-21T04:03:21.895Z,61.10
2019-05-21T04:05:48.569Z,60.80
2019-05-21T04:08:15.096Z,60.70
2019-05-21T04:10:48.678Z,60.70
2019-05-21T04:13:29.225Z,60.70
2019-05-21T04:16:13.512Z,60.90
2019-05-21T04:19:00.650Z,60.70
2019-05-21T04:21:27.155Z,60.70
2019-05-21T04:24:00.658Z,60.70
2019-05-21T04:26:35.993Z,60.60
2019-05-21T04:29:02.582Z,60.80
2019-05-21T04:31:29.164Z,61.70
2019-05-21T04:34:02.069Z,61.30
2019-05-21T04:36:28.683Z,61.20
2019-05-21T04:38:55.189Z,62.40
2019-05-21T04:41:28.139Z,62.40
2019-05-21T04:43:54.672Z,61.50
2019-05-21T04:46:21.222Z,61.40
2019-05-21T04:48:54.912Z,61.50
2019-05-21T04:51:21.477Z,61.90
2019-05-21T04:53:48.044Z,61.90
2019-05-21T04:56:21.310Z,62.80
2019-05-21T04:58:47.819Z,63.20
2019-05-21T05:01:21.303Z,62.70
2019-05-21T05:03:57.803Z,62.80
2019-05-21T05:06:24.413Z,63.40
2019-05-21T05:08:57.184Z,63.30
2019-05-21T05:11:23.723Z,63.60
2019-05-21T05:13:57.229Z,63.40
2019-05-21T05:16:30.807Z,63.60
2019-05-21T05:19:03.836Z,63.40
2019-05-21T05:21:30.356Z,63.40
2019-05-21T05:23:56.944Z,63.80
2019-05-21T05:26:29.953Z,64.20
2019-05-21T05:28:56.552Z,64.30
2019-05-21T05:31:29.753Z,63.70
2019-05-21T05:33:56.395Z,64.10
2019-05-21T05:36:29.948Z,64.50
2019-05-21T05:39:06.226Z,64.50
2019-05-21T05:41:32.733Z,64.50
2019-05-21T05:44:05.713Z,64.50
2019-05-21T05:46:32.333Z,64.40
2019-05-21T05:49:07.193Z,65.30
2019-05-21T05:51:40.235Z,65.00
2019-05-21T05:54:07.785Z,64.70
2019-05-21T05:56:40.777Z,64.80
2019-05-21T05:59:07.700Z,64.30
2019-05-21T06:01:34.519Z,65.00
2019-05-21T06:04:14.192Z,65.20
2019-05-21T06:06:42.501Z,64.80
2019-05-21T06:10:19.619Z,66.10
2019-05-21T06:12:50.298Z,65.20
2019-05-21T06:15:46.369Z,65.30
2019-05-21T06:18:17.390Z,65.40
2019-05-21T06:20:50.576Z,65.60
2019-05-21T06:23:41.790Z,65.70
2019-05-21T06:26:13.462Z,65.20
2019-05-21T06:28:52.870Z,65.30
2019-05-21T06:31:30.375Z,65.40
2019-05-21T06:37:11.228Z,65.20
2019-05-21T06:40:10.823Z,65.30
2019-05-21T06:42:35.120Z,65.10
2019-05-21T06:45:02.599Z,65.90
2019-05-21T06:47:35.374Z,65.40
2019-05-21T06:50:03.447Z,65.60
2019-05-21T06:52:36.965Z,65.50
2019-05-21T06:55:04.503Z,66.10
2019-05-21T06:57:41.970Z,65.90
2019-05-21T07:00:15.415Z,65.60
2019-05-21T07:02:48.363Z,65.90
2019-05-21T07:05:17.178Z,65.70
2019-05-21T07:07:49.997Z,65.80
2019-05-21T07:10:16.692Z,66.00
2019-05-21T07:12:50.097Z,65.60
2019-05-21T07:15:18.371Z,65.80
2019-05-21T07:17:58.268Z,65.50
2019-05-21T07:20:31.647Z,65.80
2019-05-21T07:22:58.341Z,65.90
2019-05-21T07:25:32.340Z,65.60
2019-05-21T07:27:59.859Z,65.40
2019-05-21T07:30:33.498Z,65.30
2019-05-21T07:33:12.814Z,65.80
2019-05-21T07:35:47.112Z,65.50
2019-05-21T07:38:20.069Z,65.30
2019-05-21T07:43:58.614Z,64.90
2019-05-21T07:46:31.928Z,64.70
2019-05-21T07:49:11.140Z,64.10
2019-05-21T07:54:40.937Z,64.80
2019-05-21T07:57:14.532Z,64.80
2019-05-21T07:59:40.885Z,64.60
2019-05-21T08:02:07.549Z,64.50
2019-05-21T08:04:42.459Z,64.30
2019-05-21T08:07:15.494Z,64.40
2019-05-21T08:09:41.879Z,64.20
2019-05-21T08:12:27.849Z,64.40
2019-05-21T08:14:43.248Z,64.30
2019-05-21T08:17:16.789Z,64.30
2019-05-21T08:20:08.182Z,63.90
2019-05-21T08:22:25.077Z,64.20
2019-05-21T08:24:51.347Z,63.60
2019-05-21T08:27:26.165Z,63.60
2019-05-21T08:29:52.552Z,64.60
2019-05-21T08:32:25.260Z,63.40
2019-05-21T08:35:04.733Z,63.60
2019-05-21T08:37:37.728Z,63.40
2019-05-21T08:40:06.399Z,63.40
2019-05-21T08:42:39.054Z,63.30
2019-05-21T08:45:08.944Z,62.80
2019-05-21T08:47:42.546Z,62.10
2019-05-21T08:50:16.746Z,62.60
2019-05-21T08:52:43.507Z,62.10
2019-05-21T09:01:10.497Z,61.60
2019-05-21T09:03:52.548Z,61.60
2019-05-21T09:06:26.660Z,61.50
2019-05-21T09:08:53.014Z,61.60
2019-05-21T09:11:19.364Z,61.30
2019-05-21T09:13:51.990Z,60.80
2019-05-21T09:19:36.147Z,61.30
2019-05-21T09:22:01.496Z,61.40
2019-05-21T09:24:45.072Z,61.40
2019-05-21T09:30:30.630Z,60.20
2019-05-21T09:33:10.653Z,60.60
2019-05-21T09:35:43.298Z,60.20
2019-05-21T09:38:11.113Z,61.20
2019-05-21T09:40:37.504Z,61.90
2019-05-21T09:43:11.305Z,64.80
2019-05-21T09:45:57.794Z,65.30
2019-05-21T09:48:37.391Z,65.40
2019-05-21T09:51:05.642Z,64.30
2019-05-21T09:53:38.453Z,61.90
2019-05-21T09:56:30.043Z,60.70
2019-05-21T09:58:58.229Z,61.90
2019-05-21T10:01:39.360Z,59.10
2019-05-21T10:04:05.919Z,58.70
2019-05-21T10:06:38.867Z,57.30
2019-05-21T10:09:08.522Z,56.30
2019-05-21T10:11:41.222Z,53.50
2019-05-21T10:14:14.434Z,52.70
2019-05-21T10:16:47.588Z,51.80
2019-05-21T10:19:14.103Z,51.00
2019-05-21T10:21:46.918Z,50.30
2019-05-21T10:24:20.175Z,48.90
2019-05-21T10:26:46.650Z,49.00
2019-05-21T10:29:19.409Z,48.00
2019-05-21T10:31:58.912Z,48.30
2019-05-21T10:34:25.410Z,46.70
2019-05-21T10:37:05.269Z,45.10
2019-05-21T10:39:38.574Z,44.40
2019-05-21T10:45:39.643Z,42.40
2019-05-21T10:47:58.126Z,43.00
2019-05-21T10:53:41.363Z,42.50
2019-05-21T10:56:08.049Z,41.10
2019-05-21T10:58:34.531Z,41.90
2019-05-21T11:01:09.573Z,41.40
2019-05-21T11:03:44.613Z,40.00
2019-05-21T11:06:18.396Z,39.70
2019-05-21T11:08:44.855Z,38.90
2019-05-21T11:11:21.122Z,39.70
2019-05-21T11:13:52.576Z,40.40
2019-05-21T11:16:19.055Z,39.50
2019-05-21T11:18:51.822Z,38.50
2019-05-21T11:21:18.293Z,38.90
2019-05-21T11:23:51.508Z,39.60
2019-05-21T11:26:18.005Z,39.70
2019-05-21T11:28:50.741Z,40.20
2019-05-21T11:31:23.558Z,41.60
2019-05-21T11:33:50.138Z,40.40
2019-05-21T11:36:23.227Z,39.50
2019-05-21T11:38:56.610Z,37.90
2019-05-21T11:41:29.790Z,37.80
2019-05-21T11:43:56.171Z,37.00
2019-05-21T11:46:29.276Z,37.90
2019-05-21T11:49:02.502Z,37.40
2019-05-21T11:51:28.956Z,37.50
2019-05-21T11:54:01.919Z,38.20
2019-05-21T11:56:36.344Z,39.20
2019-05-21T11:59:03.164Z,38.60
2019-05-21T12:01:36.665Z,38.20
2019-05-21T12:04:09.859Z,37.40
2019-05-21T12:06:42.885Z,37.20
2019-05-21T12:09:09.343Z,38.60
2019-05-21T12:11:42.149Z,40.00
2019-05-21T12:14:08.489Z,41.10
2019-05-21T12:16:34.885Z,40.40
2019-05-21T12:19:08.610Z,39.50
2019-05-21T12:21:35.289Z,38.80
2019-05-21T12:24:04.878Z,38.10
2019-05-21T12:26:38.365Z,36.80
2019-05-21T12:29:11.524Z,37.40
2019-05-21T12:31:44.561Z,37.80
2019-05-21T12:34:23.984Z,36.90
2019-05-21T12:36:50.419Z,37.30
2019-05-21T12:39:23.909Z,38.20
2019-05-21T12:41:56.281Z,38.20
2019-05-21T12:44:22.631Z,37.10
2019-05-21T12:46:55.622Z,37.60
2019-05-21T12:49:28.656Z,38.50
2019-05-21T12:52:01.765Z,39.20
2019-05-21T12:54:35.205Z,39.10
2019-05-21T12:57:08.446Z,38.70
2019-05-21T12:59:34.905Z,37.60
2019-05-21T13:02:07.762Z,36.40
2019-05-21T13:04:47.867Z,35.20
2019-05-21T13:07:14.347Z,36.20
2019-05-21T13:09:47.243Z,36.30
2019-05-21T13:12:13.697Z,36.50
2019-05-21T13:14:40.171Z,36.40
2019-05-21T13:17:13.086Z,35.50
2019-05-21T13:19:39.552Z,37.10
2019-05-21T13:22:12.301Z,36.10
2019-05-21T13:24:45.557Z,35.60
2019-05-21T13:27:25.691Z,35.80
2019-05-21T13:29:59.042Z,34.40
2019-05-21T13:32:32.128Z,33.50
2019-05-21T13:35:05.480Z,34.20
2019-05-21T13:37:32.649Z,34.00
2019-05-21T13:40:06.153Z,34.20
2019-05-21T13:42:39.243Z,34.20
2019-05-21T13:45:19.790Z,34.50
2019-05-21T13:47:46.236Z,34.40
2019-05-21T13:50:12.801Z,34.80
2019-05-21T13:53:05.340Z,35.70
2019-05-21T13:55:38.748Z,36.50
2019-05-21T13:58:11.446Z,36.90
2019-05-21T14:00:46.381Z,37.60
2019-05-21T14:03:12.927Z,38.20
2019-05-21T14:05:39.380Z,37.70
2019-05-21T14:08:12.617Z,38.20
2019-05-21T14:10:39.291Z,38.60
2019-05-21T14:13:12.163Z,37.70
2019-05-21T14:15:45.332Z,38.30
2019-05-21T14:18:11.769Z,38.30
2019-05-21T14:20:38.226Z,38.30
2019-05-21T14:23:11.492Z,37.90
2019-05-21T14:25:37.972Z,38.50
2019-05-21T14:28:04.580Z,39.00
2019-05-21T14:30:37.219Z,38.70
2019-05-21T14:33:16.700Z,39.30
2019-05-21T14:35:43.170Z,39.10
2019-05-21T14:38:15.703Z,39.00
2019-05-21T14:40:48.920Z,39.40
2019-05-21T14:43:15.380Z,39.20
2019-05-21T14:45:48.164Z,38.90
2019-05-21T14:48:14.483Z,39.60
2019-05-21T14:50:40.858Z,39.80
2019-05-21T14:53:14.557Z,39.50
2019-05-21T14:55:48.036Z,39.80
2019-05-21T14:58:27.386Z,39.80
2019-05-21T15:01:00.648Z,40.20
2019-05-21T15:03:29.454Z,40.50
2019-05-21T15:05:55.191Z,40.50
2019-05-21T15:08:27.796Z,40.70
2019-05-21T15:11:07.146Z,40.50
2019-05-21T15:13:33.492Z,40.60
2019-05-21T15:16:06.927Z,41.10
2019-05-21T15:18:33.523Z,41.30
2019-05-21T15:21:04.877Z,41.10
2019-05-21T15:23:38.373Z,40.70
2019-05-21T15:26:11.733Z,41.00
2019-05-21T15:28:44.613Z,40.90
2019-05-21T15:31:10.980Z,41.50
2019-05-21T15:33:43.655Z,41.40
2019-05-21T15:36:16.619Z,41.20
2019-05-21T15:38:50.967Z,41.10
2019-05-21T15:41:17.508Z,41.70
2019-05-21T15:43:43.853Z,42.00
2019-05-21T15:46:16.374Z,41.60
2019-05-21T15:48:49.642Z,41.50
2019-05-21T15:51:15.881Z,41.40
2019-05-21T15:53:49.063Z,42.00
2019-05-21T15:56:21.599Z,41.90
2019-05-21T15:58:47.957Z,42.30
2019-05-21T16:01:20.591Z,41.80
2019-05-21T16:03:46.837Z,42.20
2019-05-21T16:06:13.187Z,42.00
2019-05-21T16:08:46.287Z,42.10
2019-05-21T16:11:27.342Z,42.30
2019-05-21T16:13:47.206Z,42.30
2019-05-21T16:16:13.551Z,42.50
2019-05-21T16:18:46.427Z,42.80
2019-05-21T16:21:19.491Z,41.90
2019-05-21T16:23:52.575Z,41.70
2019-05-21T16:26:25.933Z,41.90
2019-05-21T16:28:52.274Z,42.20
2019-05-21T16:31:25.745Z,42.00
2019-05-21T16:33:59.133Z,41.10
2019-05-21T16:36:32.204Z,41.50
2019-05-21T16:39:12.504Z,41.70
2019-05-21T16:41:45.618Z,42.10
2019-05-21T16:44:19.359Z,42.30
2019-05-21T16:46:45.811Z,42.40
2019-05-21T16:49:12.297Z,42.70
2019-05-21T16:51:45.445Z,42.60
2019-05-21T16:54:11.684Z,42.60
2019-05-21T16:56:51.460Z,42.40
2019-05-21T16:59:24.598Z,42.50
2019-05-21T17:01:57.746Z,41.90
2019-05-21T17:07:12.394Z,42.80
2019-05-21T17:09:39.015Z,43.00
2019-05-21T17:12:05.756Z,42.90
2019-05-21T17:14:38.927Z,42.80
2019-05-21T17:17:05.567Z,42.90
2019-05-21T17:19:39.062Z,42.70
2019-05-21T17:22:12.187Z,42.90
2019-05-21T17:24:39.097Z,43.00
2019-05-21T17:27:12.325Z,43.30
2019-05-21T17:29:38.944Z,43.40
2019-05-21T17:32:19.065Z,43.40
2019-05-21T17:34:45.680Z,43.30
2019-05-21T17:37:12.319Z,42.80
2019-05-21T17:39:45.651Z,43.00
2019-05-21T17:42:33.062Z,42.90
2019-05-21T17:45:07.432Z,43.20
2019-05-21T17:47:40.423Z,43.10
2019-05-21T17:50:14.590Z,43.30
2019-05-21T17:52:41.232Z,43.30
2019-05-21T17:55:15.086Z,43.20
2019-05-21T17:57:55.178Z,42.90
2019-05-21T18:00:24.280Z,43.20
2019-05-21T18:02:57.388Z,43.50
2019-05-21T18:05:24.656Z,43.30
2019-05-21T18:07:57.363Z,43.00
2019-05-21T18:10:24.296Z,43.10
2019-05-21T18:12:57.940Z,43.30
2019-05-21T18:15:30.994Z,43.40
2019-05-21T18:18:05.245Z,43.30
2019-05-21T18:20:32.159Z,43.50
2019-05-21T18:23:05.431Z,43.60
2019-05-21T18:25:32.063Z,43.70
2019-05-21T18:28:05.650Z,43.80
2019-05-21T18:30:32.493Z,43.80
2019-05-21T18:33:06.865Z,43.90
2019-05-21T18:35:40.297Z,43.70
2019-05-21T18:38:20.227Z,44.50
2019-05-21T18:40:47.048Z,43.70
2019-05-21T18:43:20.491Z,43.80
2019-05-21T18:45:53.849Z,43.60
2019-05-21T18:48:26.938Z,43.90
2019-05-21T18:51:00.238Z,44.00
2019-05-21T18:53:26.894Z,44.10
2019-05-21T18:56:06.636Z,44.10
2019-05-21T18:58:39.490Z,44.10
2019-05-21T19:01:12.930Z,44.10
2019-05-21T19:03:46.178Z,44.20
2019-05-21T19:06:12.819Z,44.20
2019-05-21T19:08:48.319Z,44.30
2019-05-21T19:11:14.958Z,44.20
2019-05-21T19:13:48.607Z,44.30
2019-05-21T19:16:15.235Z,44.30
2019-05-21T19:18:48.288Z,44.30
2019-05-21T19:21:14.913Z,43.90
2019-05-21T19:23:48.593Z,44.00
2019-05-21T19:26:15.213Z,44.20
2019-05-21T19:28:41.857Z,44.10
2019-05-21T19:31:14.994Z,44.00
2019-05-21T19:33:41.619Z,44.00
2019-05-21T19:36:08.352Z,44.00
2019-05-21T19:38:48.444Z,44.10
2019-05-21T19:41:21.455Z,44.00
2019-05-21T19:43:54.693Z,44.10
2019-05-21T19:46:21.321Z,44.20
2019-05-21T19:48:47.987Z,44.30
2019-05-21T19:51:21.017Z,44.20
2019-05-21T19:53:47.848Z,44.40
2019-05-21T19:56:21.432Z,44.20
2019-05-21T19:59:01.802Z,44.40
2019-05-21T20:01:28.430Z,44.30
2019-05-21T20:04:01.141Z,44.30
2019-05-21T20:06:28.560Z,44.20
2019-05-21T20:09:02.115Z,44.40
2019-05-21T20:11:29.208Z,44.30
2019-05-21T20:14:02.343Z,44.50
2019-05-21T20:16:36.885Z,44.60
2019-05-21T20:19:04.647Z,44.60
2019-05-21T20:21:38.706Z,44.70
2019-05-21T20:24:06.358Z,44.60
2019-05-21T20:26:40.746Z,44.70
2019-05-21T20:29:09.290Z,44.70
2019-05-21T20:31:50.899Z,44.70
2019-05-21T20:34:24.083Z,44.70
2019-05-21T20:36:51.709Z,44.70
2019-05-21T20:39:32.639Z,44.80
2019-05-21T20:42:00.077Z,44.80
2019-05-21T20:44:33.730Z,44.80
2019-05-21T20:47:02.076Z,44.80
2019-05-21T20:49:29.405Z,44.80
2019-05-21T20:52:17.809Z,44.90
2019-05-21T20:54:32.901Z,44.80
2019-05-21T20:57:14.493Z,44.80
2019-05-21T20:59:47.411Z,44.90
2019-05-21T21:02:22.627Z,45.20
2019-05-21T21:04:49.213Z,45.00
2019-05-21T21:07:16.136Z,45.10
2019-05-21T21:09:50.175Z,45.00
2019-05-21T21:12:17.010Z,45.00
2019-05-21T21:14:43.856Z,45.00
2019-05-21T21:17:17.618Z,45.10
2019-05-21T21:19:50.870Z,45.00
2019-05-21T21:22:17.482Z,45.20
2019-05-21T21:24:44.112Z,45.30
2019-05-21T21:27:17.350Z,45.20
2019-05-21T21:29:43.990Z,45.20
2019-05-21T21:32:17.709Z,45.10
2019-05-21T21:34:44.354Z,45.30
2019-05-21T21:37:11.884Z,45.30
2019-05-21T21:39:46.254Z,45.40
2019-05-21T21:42:13.584Z,45.50
2019-05-21T21:44:46.578Z,45.70
2019-05-21T21:47:21.923Z,45.70
2019-05-21T21:49:56.064Z,45.70
2019-05-21T21:52:23.275Z,45.70
2019-05-21T21:54:50.099Z,45.80
2019-05-21T21:57:23.811Z,45.70
2019-05-21T21:59:56.855Z,45.70
2019-05-21T22:02:34.699Z,45.80
2019-05-21T22:05:01.835Z,45.80
2019-05-21T22:07:29.159Z,45.90
2019-05-21T22:10:02.133Z,45.90
2019-05-21T22:12:29.058Z,45.90
2019-05-21T22:14:57.291Z,46.00
2019-05-21T22:17:31.301Z,46.10
2019-05-21T22:19:58.030Z,46.10
2019-05-21T22:22:25.264Z,46.30
2019-05-21T22:24:58.491Z,46.30
2019-05-21T22:27:25.989Z,46.20
2019-05-21T22:29:52.566Z,46.40
2019-05-21T22:32:26.391Z,46.50
2019-05-21T22:34:53.143Z,47.60
2019-05-21T22:37:21.604Z,46.70
2019-05-21T22:39:55.770Z,46.90
2019-05-21T22:42:23.005Z,46.90
2019-05-21T22:45:07.460Z,47.00
2019-05-21T22:47:31.046Z,47.80
2019-05-21T22:50:04.739Z,47.40
2019-05-21T22:52:37.863Z,47.30
2019-05-21T22:55:05.907Z,48.20
2019-05-21T22:57:38.742Z,48.10
2019-05-21T23:00:18.795Z,47.70
2019-05-21T23:02:52.316Z,47.80
2019-05-21T23:05:22.732Z,47.80
2019-05-21T23:07:47.493Z,47.70
2019-05-21T23:10:23.105Z,47.90
2019-05-21T23:12:50.033Z,47.90
2019-05-21T23:15:25.217Z,48.00
2019-05-21T23:17:58.854Z,48.00
2019-05-21T23:20:27.486Z,48.10
2019-05-21T23:22:55.730Z,47.90
2019-05-21T23:25:28.899Z,48.00
2019-05-21T23:27:55.543Z,48.00
2019-05-21T23:30:22.667Z,47.90
2019-05-21T23:32:56.428Z,48.10
2019-05-21T23:35:29.437Z,48.00
2019-05-21T23:38:02.925Z,48.70
2019-05-21T23:40:29.666Z,48.60
2019-05-21T23:42:56.796Z,48.40
2019-05-21T23:45:30.323Z,49.20
2019-05-21T23:47:57.046Z,49.10
2019-05-21T23:50:24.873Z,49.10
2019-05-21T23:52:58.355Z,49.40
2019-05-21T23:55:31.317Z,49.60
2019-05-21T23:58:05.891Z,49.80
